Time;durP1;ratioP1;P1;durP2;ratioP2;P2;SDS_P1;SDS_P2;PMS_P1;PMS_P2;Temp;Humidity;BMP_temperature;BMP_pressure;BME280_temperature;BME280_humidity;BME280_pressure;Samples;Min_cycle;Max_cycle;Signal;HPM_P1;HPM_P2
2022/09/02 00:03:24;;;;;;;3.05;1.25;;;;;;;;;;10480403;28;20055;-82
2022/09/02 00:08:30;;;;;;;1.60;1.10;;;;;;;;;;10482662;28;20089;-82
2022/09/02 00:13:35;;;;;;;1.92;1.00;;;;;;;;;;10493944;28;20036;-82
2022/09/02 00:18:40;;;;;;;1.27;0.95;;;;;;;;;;10511209;28;20644;-82
2022/09/02 00:23:45;;;;;;;1.85;1.15;;;;;;;;;;10477946;28;20064;-82
2022/09/02 00:28:49;;;;;;;1.85;1.10;;;;;;;;;;10481146;28;20044;-82
2022/09/02 00:33:52;;;;;;;2.58;1.38;;;;;;;;;;10487556;28;20565;-82
2022/09/02 00:38:57;;;;;;;1.98;1.27;;;;;;;;;;10499823;28;20036;-82
2022/09/02 00:44:03;;;;;;;1.90;1.15;;;;;;;;;;10505362;28;20101;-82
2022/09/02 00:49:10;;;;;;;1.98;1.05;;;;;;;;;;10493537;28;20044;-82
2022/09/02 00:54:16;;;;;;;3.75;1.45;;;;;;;;;;10490490;28;20044;-82
2022/09/02 00:59:23;;;;;;;;;;;;;;;;;;10490215;28;20504;-82
2022/09/02 01:04:28;;;;;;;1.48;1.20;;;;;;;;;;10473547;28;19982;-82
2022/09/02 01:09:32;;;;;;;2.00;1.20;;;;;;;;;;10486600;28;20090;-82
2022/09/02 01:14:36;;;;;;;3.28;1.52;;;;;;;;;;10495559;28;20068;-81
2022/09/02 01:19:43;;;;;;;2.83;1.38;;;;;;;;;;10482788;28;20047;-82
2022/09/02 01:24:48;;;;;;;2.40;1.15;;;;;;;;;;10470254;28;20070;-81
2022/09/02 01:29:54;;;;;;;2.20;1.50;;;;;;;;;;10504324;28;20478;-82
2022/09/02 01:34:58;;;;;;;2.35;1.20;;;;;;;;;;10478910;28;20072;-82
2022/09/02 01:40:04;;;;;;;3.10;1.25;;;;;;;;;;10488845;28;20044;-82
2022/09/02 01:45:09;;;;;;;1.50;1.10;;;;;;;;;;10479927;28;20075;-82
2022/09/02 01:50:13;;;;;;;2.13;1.10;;;;;;;;;;10494583;28;20075;-82
2022/09/02 01:55:17;;;;;;;1.83;1.20;;;;;;;;;;10507101;28;20048;-82
2022/09/02 02:00:21;;;;;;;2.10;1.08;;;;;;;;;;10492318;28;20629;-82
2022/09/02 02:05:25;;;;;;;1.48;1.08;;;;;;;;;;10497689;28;20477;-82
2022/09/02 02:10:31;;;;;;;1.70;0.90;;;;;;;;;;10493016;28;20052;-82
2022/09/02 02:15:37;;;;;;;1.30;0.82;;;;;;;;;;10479628;28;20102;-82
2022/09/02 02:20:41;;;;;;;2.00;1.13;;;;;;;;;;10494485;28;20201;-82
2022/09/02 02:25:46;;;;;;;1.00;0.90;;;;;;;;;;10497343;28;20048;-83
2022/09/02 02:30:49;;;;;;;0.95;0.75;;;;;;;;;;10487241;28;20408;-82
2022/09/02 02:35:53;;;;;;;0.98;0.65;;;;;;;;;;10504682;28;20112;-82
2022/09/02 02:40:58;;;;;;;1.35;0.90;;;;;;;;;;10471167;28;20049;-82
2022/09/02 02:46:01;;;;;;;1.88;0.90;;;;;;;;;;10489421;28;20139;-82
2022/09/02 02:51:06;;;;;;;1.13;1.00;;;;;;;;;;10499493;28;20465;-82
2022/09/02 02:56:10;;;;;;;1.50;1.08;;;;;;;;;;10511504;28;20496;-82
2022/09/02 03:01:14;;;;;;;1.30;1.10;;;;;;;;;;10476807;28;20143;-82
2022/09/02 03:06:18;;;;;;;4.72;1.20;;;;;;;;;;10496348;28;20589;-82
2022/09/02 03:11:27;;;;;;;2.90;1.00;;;;;;;;;;10474375;28;20087;-82
2022/09/02 03:16:31;;;;;;;1.55;0.90;;;;;;;;;;10493251;28;20076;-82
2022/09/02 03:21:35;;;;;;;1.90;0.75;;;;;;;;;;10479462;28;20083;-81
2022/09/02 03:26:43;;;;;;;1.58;0.90;;;;;;;;;;10483687;28;20037;-82
2022/09/02 03:31:47;;;;;;;3.25;1.00;;;;;;;;;;10486290;28;20051;-82
2022/09/02 03:36:51;;;;;;;1.10;0.98;;;;;;;;;;10489379;28;20094;-82
2022/09/02 03:41:56;;;;;;;1.55;0.90;;;;;;;;;;10486386;28;20064;-81
2022/09/02 03:47:00;;;;;;;1.23;0.80;;;;;;;;;;10474963;28;20048;-82
2022/09/02 03:52:03;;;;;;;1.58;0.90;;;;;;;;;;10468819;28;20132;-82
2022/09/02 03:57:09;;;;;;;1.52;0.70;;;;;;;;;;10489330;28;20055;-82
2022/09/02 04:02:12;;;;;;;0.90;0.90;;;;;;;;;;10488542;28;20052;-82
2022/09/02 04:07:17;;;;;;;1.85;0.63;;;;;;;;;;10485342;28;20044;-82
2022/09/02 04:12:22;;;;;;;2.50;0.80;;;;;;;;;;10498316;28;20604;-83
2022/09/02 04:17:25;;;;;;;1.15;0.70;;;;;;;;;;10491706;28;20036;-83
2022/09/02 04:22:29;;;;;;;0.60;0.60;;;;;;;;;;10491209;28;20100;-83
2022/09/02 04:27:35;;;;;;;1.15;0.75;;;;;;;;;;10483811;28;20064;-83
2022/09/02 04:32:38;;;;;;;1.15;0.80;;;;;;;;;;10490006;28;20488;-82
2022/09/02 04:37:46;;;;;;;1.25;0.70;;;;;;;;;;10487904;28;20064;-83
2022/09/02 04:42:52;;;;;;;0.63;0.60;;;;;;;;;;10490850;28;20106;-83
2022/09/02 04:47:56;;;;;;;1.50;0.90;;;;;;;;;;10487880;28;20040;-82
2022/09/02 04:53:00;;;;;;;1.25;0.90;;;;;;;;;;10498345;28;20052;-81
2022/09/02 04:58:07;;;;;;;1.05;0.85;;;;;;;;;;10483734;28;20044;-81
2022/09/02 05:03:12;;;;;;;1.17;0.93;;;;;;;;;;10498471;28;20044;-81
2022/09/02 05:08:21;;;;;;;0.90;0.70;;;;;;;;;;10475144;28;20075;-82
2022/09/02 05:13:26;;;;;;;1.15;0.82;;;;;;;;;;10487033;28;20056;-81
2022/09/02 05:18:30;;;;;;;1.27;0.80;;;;;;;;;;10495737;28;20064;-81
2022/09/02 05:23:35;;;;;;;1.20;0.80;;;;;;;;;;10494182;28;20279;-82
2022/09/02 05:28:42;;;;;;;0.82;0.80;;;;;;;;;;10475211;28;20067;-82
2022/09/02 05:33:46;;;;;;;1.15;0.70;;;;;;;;;;10478767;28;20547;-82
2022/09/02 05:38:55;;;;;;;1.65;0.82;;;;;;;;;;10476595;28;20118;-82
2022/09/02 05:44:02;;;;;;;0.90;0.70;;;;;;;;;;10489958;28;20135;-83
2022/09/02 05:49:08;;;;;;;2.83;0.93;;;;;;;;;;10490028;28;20451;-82
2022/09/02 05:54:18;;;;;;;0.75;0.70;;;;;;;;;;10497340;28;20054;-82
2022/09/02 05:59:25;;;;;;;1.35;0.75;;;;;;;;;;10478704;28;20439;-82
2022/09/02 06:04:30;;;;;;;1.33;0.80;;;;;;;;;;10475500;28;20040;-82
2022/09/02 06:09:35;;;;;;;1.35;0.85;;;;;;;;;;10498804;28;20036;-82
2022/09/02 06:14:42;;;;;;;1.13;0.80;;;;;;;;;;10474619;28;20036;-82
2022/09/02 06:19:46;;;;;;;1.83;1.03;;;;;;;;;;10492213;28;20076;-82
2022/09/02 06:24:51;;;;;;;1.42;0.70;;;;;;;;;;10483315;28;20295;-83
2022/09/02 06:30:00;;;;;;;0.55;0.55;;;;;;;;;;10491935;28;20044;-82
2022/09/02 06:35:06;;;;;;;0.93;0.82;;;;;;;;;;10489734;28;20722;-82
2022/09/02 06:40:12;;;;;;;0.95;0.65;;;;;;;;;;10484997;28;20067;-82
2022/09/02 06:45:18;;;;;;;2.25;0.45;;;;;;;;;;10487677;28;20041;-82
2022/09/02 06:50:23;;;;;;;;;;;;;;;;;;10490979;28;20036;-82
2022/09/02 06:55:26;;;;;;;0.55;0.55;;;;;;;;;;10482591;28;19927;-83
2022/09/02 07:00:31;;;;;;;0.75;0.55;;;;;;;;;;10473219;28;20124;-84
2022/09/02 07:05:35;;;;;;;1.40;0.50;;;;;;;;;;10494365;28;20780;-83
2022/09/02 07:10:40;;;;;;;0.93;0.50;;;;;;;;;;10480389;28;20385;-83
2022/09/02 07:15:46;;;;;;;0.68;0.57;;;;;;;;;;10486909;28;20048;-83
2022/09/02 07:20:50;;;;;;;1.20;0.70;;;;;;;;;;10480516;28;20048;-83
2022/09/02 07:25:54;;;;;;;1.63;0.73;;;;;;;;;;10488629;28;20064;-83
2022/09/02 07:30:59;;;;;;;0.70;0.60;;;;;;;;;;10474528;28;20515;-82
2022/09/02 07:36:04;;;;;;;0.80;0.40;;;;;;;;;;10486617;28;20131;-83
2022/09/02 07:41:10;;;;;;;0.30;0.30;;;;;;;;;;10487095;28;20048;-83
2022/09/02 07:46:15;;;;;;;1.10;0.60;;;;;;;;;;10469906;28;20463;-82
2022/09/02 07:51:19;;;;;;;1.95;0.63;;;;;;;;;;10477033;28;20048;-83
2022/09/02 07:56:24;;;;;;;0.68;0.47;;;;;;;;;;10484581;28;20044;-83
2022/09/02 08:01:30;;;;;;;0.40;0.40;;;;;;;;;;10466677;28;20147;-83
2022/09/02 08:06:34;;;;;;;0.73;0.73;;;;;;;;;;10484838;28;20067;-84
2022/09/02 08:11:39;;;;;;;1.23;0.47;;;;;;;;;;10477894;28;20673;-83
2022/09/02 08:16:43;;;;;;;0.40;0.38;;;;;;;;;;10481018;28;20070;-84
2022/09/02 08:21:47;;;;;;;1.83;1.05;;;;;;;;;;10509390;28;20055;-84
2022/09/02 08:26:50;;;;;;;0.98;0.60;;;;;;;;;;10492633;28;20094;-84
2022/09/02 08:31:55;;;;;;;0.75;0.52;;;;;;;;;;10472448;28;20404;-84
2022/09/02 08:36:58;;;;;;;0.70;0.30;;;;;;;;;;10478944;28;20064;-83
2022/09/02 08:42:08;;;;;;;0.73;0.40;;;;;;;;;;10490425;28;20543;-84
2022/09/02 08:47:18;;;;;;;0.93;0.40;;;;;;;;;;10501732;28;20040;-84
2022/09/02 08:52:29;;;;;;;0.82;0.40;;;;;;;;;;10472241;28;20105;-84
2022/09/02 08:57:33;;;;;;;0.43;0.43;;;;;;;;;;10494518;28;20036;-84
2022/09/02 09:02:45;;;;;;;0.90;0.50;;;;;;;;;;10478040;28;20040;-84
2022/09/02 09:08:04;;;;;;;1.48;0.45;;;;;;;;;;10513942;28;20060;-84
2022/09/02 09:13:49;;;;;;;0.25;0.25;;;;;;;;;;10469265;28;20412;-85
2022/09/02 09:19:00;;;;;;;0.50;0.30;;;;;;;;;;10445437;28;20519;-84
2022/09/02 09:24:13;;;;;;;3.60;0.30;;;;;;;;;;10475994;28;20367;-85
2022/09/02 09:29:17;;;;;;;0.63;0.20;;;;;;;;;;10476895;28;20388;-84
2022/09/02 09:34:22;;;;;;;1.95;0.40;;;;;;;;;;10488051;28;20407;-85
2022/09/02 09:39:29;;;;;;;0.77;0.43;;;;;;;;;;10476120;28;20047;-84
2022/09/02 09:44:39;;;;;;;0.73;0.40;;;;;;;;;;10483987;28;20041;-84
2022/09/02 09:49:43;;;;;;;1.17;0.50;;;;;;;;;;10492730;28;20045;-85
2022/09/02 09:54:47;;;;;;;0.85;0.50;;;;;;;;;;10484998;28;20033;-85
2022/09/02 09:59:55;;;;;;;0.50;0.40;;;;;;;;;;10481688;28;20470;-84
2022/09/02 10:05:18;;;;;;;0.30;0.20;;;;;;;;;;10487854;28;20045;-84
2022/09/02 10:10:27;;;;;;;0.20;0.20;;;;;;;;;;10481181;28;20036;-83
2022/09/02 10:15:38;;;;;;;0.75;0.38;;;;;;;;;;10488591;28;20068;-84
2022/09/02 10:20:50;;;;;;;1.10;0.30;;;;;;;;;;10478880;28;20106;-84
2022/09/02 10:26:23;;;;;;;0.68;0.40;;;;;;;;;;10470737;28;20059;-84
2022/09/02 10:31:32;;;;;;;0.20;0.20;;;;;;;;;;10483097;28;20064;-84
2022/09/02 10:36:47;;;;;;;1.50;0.40;;;;;;;;;;10482421;28;20086;-85
2022/09/02 10:41:54;;;;;;;1.10;0.38;;;;;;;;;;10501229;28;20174;-84
2022/09/02 10:47:01;;;;;;;0.80;0.50;;;;;;;;;;10483619;28;20109;-84
2022/09/02 10:52:16;;;;;;;0.40;0.30;;;;;;;;;;10484840;28;20045;-83
2022/09/02 10:57:26;;;;;;;0.20;0.20;;;;;;;;;;10486054;28;20687;-85
2022/09/02 11:02:36;;;;;;;1.00;0.40;;;;;;;;;;10485621;28;20488;-84
2022/09/02 11:07:47;;;;;;;1.20;0.50;;;;;;;;;;10491643;28;20568;-84
2022/09/02 11:12:56;;;;;;;0.70;0.35;;;;;;;;;;10486561;28;20515;-84
2022/09/02 11:18:05;;;;;;;0.98;0.50;;;;;;;;;;10483220;28;20055;-84
2022/09/02 11:23:18;;;;;;;0.30;0.30;;;;;;;;;;10475165;28;20052;-84
2022/09/02 11:28:33;;;;;;;0.50;0.30;;;;;;;;;;10484685;28;20742;-84
2022/09/02 11:33:49;;;;;;;0.65;0.30;;;;;;;;;;10489563;28;20054;-84
2022/09/02 11:38:57;;;;;;;0.50;0.40;;;;;;;;;;10484379;28;20048;-84
2022/09/02 11:44:15;;;;;;;2.05;0.38;;;;;;;;;;10492251;28;20082;-85
2022/09/02 11:49:37;;;;;;;1.17;0.30;;;;;;;;;;10476464;28;20793;-84
2022/09/02 11:54:45;;;;;;;2.47;0.55;;;;;;;;;;10495051;28;20090;-83
2022/09/02 12:00:25;;;;;;;0.30;0.30;;;;;;;;;;10474983;28;20048;-83
2022/09/02 12:05:51;;;;;;;0.70;0.30;;;;;;;;;;10487811;28;20094;-83
2022/09/02 12:11:00;;;;;;;0.80;0.38;;;;;;;;;;10506497;28;20562;-84
2022/09/02 12:16:37;;;;;;;0.80;0.35;;;;;;;;;;10500110;28;20050;-83
2022/09/02 12:22:26;;;;;;;0.57;0.22;;;;;;;;;;10492821;28;20041;-83
2022/09/02 12:27:35;;;;;;;0.30;0.20;;;;;;;;;;10478340;28;20043;-83
2022/09/02 12:33:13;;;;;;;0.30;0.30;;;;;;;;;;10506896;28;20085;-82
2022/09/02 12:38:31;;;;;;;0.60;0.30;;;;;;;;;;10499408;28;20052;-84
2022/09/02 12:43:45;;;;;;;0.85;0.30;;;;;;;;;;10485401;28;20535;-84
2022/09/02 12:48:57;;;;;;;0.35;0.28;;;;;;;;;;10489298;28;20117;-83
2022/09/02 12:54:01;;;;;;;0.75;0.22;;;;;;;;;;10475068;28;20248;-84
2022/09/02 12:59:07;;;;;;;0.47;0.30;;;;;;;;;;10470812;28;20048;-84
2022/09/02 13:04:30;;;;;;;0.20;0.20;;;;;;;;;;10484420;28;20086;-83
2022/09/02 13:10:05;;;;;;;1.27;0.30;;;;;;;;;;10483755;28;20137;-83
2022/09/02 13:15:29;;;;;;;0.20;0.20;;;;;;;;;;10463169;28;20128;-83
2022/09/02 13:21:06;;;;;;;0.37;0.30;;;;;;;;;;10498930;28;20036;-82
2022/09/02 13:26:32;;;;;;;0.50;0.40;;;;;;;;;;10490953;28;20066;-84
2022/09/02 13:32:03;;;;;;;0.43;0.25;;;;;;;;;;10477766;28;20128;-83
2022/09/02 13:37:09;;;;;;;1.75;0.57;;;;;;;;;;10497684;28;20036;-85
2022/09/02 13:42:17;;;;;;;0.35;0.30;;;;;;;;;;10483165;28;20691;-85
2022/09/02 13:47:22;;;;;;;0.30;0.28;;;;;;;;;;10472686;28;20064;-83
2022/09/02 13:52:25;;;;;;;0.30;0.20;;;;;;;;;;10485403;28;20132;-84
2022/09/02 13:57:56;;;;;;;0.45;0.20;;;;;;;;;;10497928;28;20503;-83
2022/09/02 14:03:05;;;;;;;0.70;0.30;;;;;;;;;;10488493;28;20763;-83
2022/09/02 14:08:12;;;;;;;0.22;0.22;;;;;;;;;;10480227;28;20055;-82
2022/09/02 14:13:16;;;;;;;0.47;0.30;;;;;;;;;;10498199;28;20074;-83
2022/09/02 14:18:24;;;;;;;0.50;0.32;;;;;;;;;;10494160;28;20094;-82
2022/09/02 14:23:29;;;;;;;0.55;0.40;;;;;;;;;;10488322;28;20040;-83
2022/09/02 14:28:34;;;;;;;0.40;0.30;;;;;;;;;;10486438;28;20094;-84
2022/09/02 14:33:40;;;;;;;;;;;;;;;;;;10497533;28;20407;-82
2022/09/02 14:38:53;;;;;;;1.40;0.30;;;;;;;;;;10478777;28;19924;-83
2022/09/02 14:43:59;;;;;;;0.60;0.20;;;;;;;;;;10475880;28;20074;-83
2022/09/02 14:49:05;;;;;;;0.60;0.40;;;;;;;;;;10483869;28;20389;-84
2022/09/02 14:54:10;;;;;;;0.43;0.20;;;;;;;;;;10484032;28;20093;-83
2022/09/02 14:59:13;;;;;;;0.27;0.20;;;;;;;;;;10481580;28;20551;-83
2022/09/02 15:04:19;;;;;;;0.77;0.50;;;;;;;;;;10486269;28;20075;-83
2022/09/02 15:09:22;;;;;;;0.30;0.30;;;;;;;;;;10497627;28;20128;-82
2022/09/02 15:14:26;;;;;;;0.43;0.40;;;;;;;;;;10495133;28;20063;-83
2022/09/02 15:19:32;;;;;;;1.67;0.30;;;;;;;;;;10476927;28;20036;-83
2022/09/02 15:24:35;;;;;;;0.35;0.10;;;;;;;;;;10497195;28;20033;-84
2022/09/02 15:29:39;;;;;;;0.70;0.40;;;;;;;;;;10478053;28;20036;-83
2022/09/02 15:34:44;;;;;;;0.28;0.20;;;;;;;;;;10477416;28;20664;-84
2022/09/02 15:39:48;;;;;;;0.30;0.22;;;;;;;;;;10483172;28;20048;-83
2022/09/02 15:44:51;;;;;;;0.20;0.20;;;;;;;;;;10476452;28;20072;-85
2022/09/02 15:49:56;;;;;;;0.65;0.30;;;;;;;;;;10492909;28;20087;-83
2022/09/02 15:55:00;;;;;;;2.28;0.20;;;;;;;;;;10480573;28;20064;-83
2022/09/02 16:00:05;;;;;;;0.25;0.10;;;;;;;;;;10486147;28;20071;-83
2022/09/02 16:05:15;;;;;;;0.20;0.20;;;;;;;;;;10486745;28;20053;-83
2022/09/02 16:10:18;;;;;;;0.82;0.22;;;;;;;;;;10494687;28;20048;-83
2022/09/02 16:15:21;;;;;;;0.10;0.10;;;;;;;;;;10476764;28;20056;-83
2022/09/02 16:20:26;;;;;;;0.30;0.20;;;;;;;;;;10486574;28;20163;-84
2022/09/02 16:25:30;;;;;;;0.47;0.20;;;;;;;;;;10483309;28;20048;-83
2022/09/02 16:30:33;;;;;;;0.20;0.20;;;;;;;;;;10476360;28;20048;-84
2022/09/02 16:35:38;;;;;;;0.45;0.28;;;;;;;;;;10487323;28;20047;-83
2022/09/02 16:40:50;;;;;;;0.20;0.20;;;;;;;;;;10501390;28;20685;-83
2022/09/02 16:45:54;;;;;;;0.75;0.20;;;;;;;;;;10476290;28;20412;-84
2022/09/02 16:51:01;;;;;;;0.30;0.25;;;;;;;;;;10491506;28;20044;-84
2022/09/02 16:56:05;;;;;;;0.40;0.22;;;;;;;;;;10496281;28;20737;-84
2022/09/02 17:01:11;;;;;;;0.10;0.10;;;;;;;;;;10481074;28;20067;-84
2022/09/02 17:06:16;;;;;;;0.22;0.20;;;;;;;;;;10502203;28;20512;-83
2022/09/02 17:11:22;;;;;;;0.30;0.20;;;;;;;;;;10511348;28;20074;-84
2022/09/02 17:16:26;;;;;;;;;;;;;;;;;;10496661;28;20060;-83
2022/09/02 17:21:33;;;;;;;0.43;0.20;;;;;;;;;;10490550;28;19920;-83
2022/09/02 17:26:39;;;;;;;0.30;0.30;;;;;;;;;;10485212;28;20429;-84
2022/09/02 17:31:43;;;;;;;0.25;0.20;;;;;;;;;;10489474;28;20704;-83
2022/09/02 17:36:48;;;;;;;0.13;0.13;;;;;;;;;;10478862;28;20091;-83
2022/09/02 17:41:55;;;;;;;1.30;0.30;;;;;;;;;;10514936;28;20056;-85
2022/09/02 17:46:59;;;;;;;2.03;0.20;;;;;;;;;;10497103;28;20140;-83
2022/09/02 17:52:06;;;;;;;0.50;0.20;;;;;;;;;;10480636;28;20075;-83
2022/09/02 17:57:37;;;;;;;0.47;0.28;;;;;;;;;;10486212;28;20044;-82
2022/09/02 18:03:07;;;;;;;1.50;0.20;;;;;;;;;;10464677;28;20135;-82
2022/09/02 18:08:26;;;;;;;0.32;0.28;;;;;;;;;;10487204;28;20048;-84
2022/09/02 18:13:38;;;;;;;1.17;0.30;;;;;;;;;;10497544;28;20093;-83
2022/09/02 18:24:12;;;;;;;0.22;0.22;;;;;;;;;;10470984;22;20061;-78
2022/09/02 18:29:25;;;;;;;0.35;0.30;;;;;;;;;;10502521;28;20135;-78
2022/09/02 18:34:46;;;;;;;1.05;0.40;;;;;;;;;;10513989;28;20079;-79
2022/09/02 18:40:07;;;;;;;0.65;0.30;;;;;;;;;;10506239;28;20043;-77
2022/09/02 18:45:20;;;;;;;1.10;0.57;;;;;;;;;;10487204;28;20045;-79
2022/09/02 18:50:27;;;;;;;1.10;0.30;;;;;;;;;;10916500;22;20084;-83
2022/09/02 18:55:54;;;;;;;0.40;0.30;;;;;;;;;;10446949;28;20075;-82
2022/09/02 19:01:00;;;;;;;0.47;0.32;;;;;;;;;;10476914;28;20041;-83
2022/09/02 19:06:07;;;;;;;0.52;0.40;;;;;;;;;;10490617;28;20063;-82
2022/09/02 19:11:13;;;;;;;0.70;0.40;;;;;;;;;;10477268;28;20672;-82
2022/09/02 19:16:19;;;;;;;1.25;0.35;;;;;;;;;;10498741;28;20044;-83
2022/09/02 19:21:30;;;;;;;1.15;0.40;;;;;;;;;;10486887;28;20077;-82
2022/09/02 19:26:36;;;;;;;0.50;0.30;;;;;;;;;;10494077;28;20068;-83
2022/09/02 19:31:41;;;;;;;0.70;0.50;;;;;;;;;;10476679;28;20052;-81
2022/09/02 19:36:49;;;;;;;0.33;0.33;;;;;;;;;;10477853;28;20048;-82
2022/09/02 19:41:54;;;;;;;0.80;0.50;;;;;;;;;;10476605;28;20329;-82
2022/09/02 19:46:57;;;;;;;0.98;0.50;;;;;;;;;;10687824;22;20491;-79
2022/09/02 19:52:20;;;;;;;0.55;0.43;;;;;;;;;;10462528;28;20341;-78
2022/09/02 19:57:25;;;;;;;2.05;0.70;;;;;;;;;;10451768;28;20504;-79
2022/09/02 20:02:28;;;;;;;1.60;0.40;;;;;;;;;;10437424;28;20050;-79
2022/09/02 20:07:32;;;;;;;1.38;0.50;;;;;;;;;;10445696;28;20112;-79
2022/09/02 20:12:37;;;;;;;0.68;0.50;;;;;;;;;;10442674;28;20060;-79
2022/09/02 20:17:40;;;;;;;1.30;0.93;;;;;;;;;;10450983;28;20572;-78
2022/09/02 20:22:48;;;;;;;1.02;0.57;;;;;;;;;;10443579;28;20132;-78
2022/09/02 20:28:03;;;;;;;0.85;0.50;;;;;;;;;;10459707;28;20416;-78
2022/09/02 20:33:13;;;;;;;0.63;0.40;;;;;;;;;;10460532;28;20128;-78
2022/09/02 20:38:33;;;;;;;1.20;0.70;;;;;;;;;;10446042;28;20037;-78
2022/09/02 20:44:09;;;;;;;1.10;0.70;;;;;;;;;;10393826;28;20123;-78
2022/09/02 20:49:28;;;;;;;0.90;0.63;;;;;;;;;;10427149;28;20074;-80
2022/09/02 20:54:39;;;;;;;0.60;0.50;;;;;;;;;;10479588;28;20127;-78
2022/09/02 20:59:57;;;;;;;0.75;0.50;;;;;;;;;;10499204;28;20048;-79
2022/09/02 21:05:09;;;;;;;0.85;0.50;;;;;;;;;;10525336;28;20376;-79
2022/09/02 21:10:19;;;;;;;0.55;0.50;;;;;;;;;;10510214;28;20052;-78
2022/09/02 21:15:28;;;;;;;1.00;0.50;;;;;;;;;;10529675;28;20044;-78
2022/09/02 21:20:42;;;;;;;0.50;0.43;;;;;;;;;;10538122;28;20036;-78
2022/09/02 21:25:51;;;;;;;0.60;0.40;;;;;;;;;;10515961;28;20041;-79
2022/09/02 21:31:01;;;;;;;0.75;0.50;;;;;;;;;;10529416;28;20040;-80
2022/09/02 21:36:05;;;;;;;2.03;0.57;;;;;;;;;;10509180;28;20094;-78
2022/09/02 21:41:27;;;;;;;0.47;0.40;;;;;;;;;;10511838;28;20036;-78
2022/09/02 21:46:39;;;;;;;1.23;0.52;;;;;;;;;;10521172;28;20040;-79
2022/09/02 21:51:49;;;;;;;2.05;0.60;;;;;;;;;;10535497;28;20044;-79
2022/09/02 21:57:07;;;;;;;0.50;0.30;;;;;;;;;;10534503;28;20044;-79
2022/09/02 22:02:20;;;;;;;0.73;0.30;;;;;;;;;;10504628;28;20056;-78
2022/09/02 22:07:27;;;;;;;0.70;0.25;;;;;;;;;;10497556;28;20052;-78
2022/09/02 22:12:38;;;;;;;0.20;0.20;;;;;;;;;;10513776;28;20075;-78
2022/09/02 22:17:50;;;;;;;0.30;0.30;;;;;;;;;;10527619;28;20049;-78
2022/09/02 22:23:01;;;;;;;0.93;0.20;;;;;;;;;;10509712;28;20056;-78
2022/09/02 22:28:08;;;;;;;0.40;0.20;;;;;;;;;;10517439;28;20107;-78
2022/09/02 22:33:16;;;;;;;0.20;0.20;;;;;;;;;;10528055;28;20071;-79
2022/09/02 22:38:26;;;;;;;0.50;0.30;;;;;;;;;;10533937;28;20044;-77
2022/09/02 22:43:34;;;;;;;0.43;0.17;;;;;;;;;;10507026;28;20033;-79
2022/09/02 22:54:06;;;;;;;0.28;0.20;;;;;;;;;;10531688;28;20028;-79
2022/09/02 22:59:34;;;;;;;0.28;0.20;;;;;;;;;;10535577;28;20044;-78
2022/09/02 23:05:02;;;;;;;0.22;0.10;;;;;;;;;;10481579;28;20076;-79
2022/09/02 23:10:25;;;;;;;0.38;0.10;;;;;;;;;;10516308;28;20692;-78
2022/09/02 23:15:36;;;;;;;1.55;0.20;;;;;;;;;;10526355;28;20110;-77
2022/09/02 23:20:49;;;;;;;0.20;0.10;;;;;;;;;;10507831;28;20344;-79
2022/09/02 23:26:08;;;;;;;0.22;0.13;;;;;;;;;;10548213;28;20040;-79
2022/09/02 23:31:20;;;;;;;0.30;0.17;;;;;;;;;;10542092;28;20039;-79
2022/09/02 23:36:34;;;;;;;0.47;0.30;;;;;;;;;;10541390;28;20093;-79
2022/09/02 23:41:37;;;;;;;0.20;0.20;;;;;;;;;;10545861;28;20051;-79
2022/09/02 23:47:00;;;;;;;1.25;0.25;;;;;;;;;;10542293;28;20032;-79
2022/09/02 23:52:09;;;;;;;1.27;0.28;;;;;;;;;;10511791;28;20063;-79
2022/09/02 23:57:26;;;;;;;2.50;0.30;;;;;;;;;;10541356;28;20039;-79
